createdAt,value
2023-03-25T00:01:18.589Z,9.42
2023-03-25T00:03:47.021Z,9.39
2023-03-25T00:06:15.191Z,9.37
2023-03-25T00:08:43.113Z,9.35
2023-03-25T00:11:11.120Z,9.32
2023-03-25T00:13:40.495Z,9.29
2023-03-25T00:16:10.328Z,9.28
2023-03-25T00:18:38.500Z,9.27
2023-03-25T00:21:11.975Z,9.26
2023-03-25T00:23:41.469Z,9.26
2023-03-25T00:26:10.311Z,9.27
2023-03-25T00:28:38.844Z,9.27
2023-03-25T00:31:14.290Z,9.28
2023-03-25T00:33:42.802Z,9.29
2023-03-25T00:36:13.759Z,9.31
2023-03-25T00:38:43.659Z,9.34
2023-03-25T00:41:13.475Z,9.36
2023-03-25T00:43:41.791Z,9.36
2023-03-25T00:46:09.723Z,9.37
2023-03-25T00:48:38.217Z,9.37
2023-03-25T00:51:10.305Z,9.37
2023-03-25T00:53:38.357Z,9.35
2023-03-25T00:56:07.333Z,9.34
2023-03-25T00:58:35.360Z,9.32
2023-03-25T01:01:13.453Z,9.29
2023-03-25T01:03:45.886Z,9.25
2023-03-25T01:06:16.869Z,9.22
2023-03-25T01:08:46.195Z,9.20
2023-03-25T01:11:22.048Z,9.18
2023-03-25T01:13:52.672Z,9.14
2023-03-25T01:16:21.186Z,9.11
2023-03-25T01:18:49.473Z,9.08
2023-03-25T01:21:18.720Z,9.04
2023-03-25T01:23:47.521Z,9.00
2023-03-25T01:26:15.798Z,8.96
2023-03-25T01:28:45.585Z,8.92
2023-03-25T01:31:16.003Z,8.86
2023-03-25T01:33:44.522Z,8.81
2023-03-25T01:36:13.116Z,8.76
2023-03-25T01:38:42.281Z,8.72
2023-03-25T01:41:11.284Z,8.68
2023-03-25T01:43:40.437Z,8.63
2023-03-25T01:46:15.776Z,8.58
2023-03-25T01:48:44.674Z,8.53
2023-03-25T01:51:24.152Z,8.49
2023-03-25T01:53:56.733Z,8.43
2023-03-25T01:56:31.953Z,8.39
2023-03-25T01:59:03.272Z,8.33
2023-03-25T02:01:31.892Z,8.28
2023-03-25T02:04:10.015Z,8.22
2023-03-25T02:06:43.813Z,8.18
2023-03-25T02:09:14.675Z,8.13
2023-03-25T02:11:42.981Z,8.09
2023-03-25T02:14:15.488Z,8.06
2023-03-25T02:16:56.870Z,8.01
2023-03-25T02:19:56.152Z,7.96
2023-03-25T02:22:27.254Z,7.91
2023-03-25T02:25:21.297Z,7.87
2023-03-25T02:28:03.390Z,7.82
2023-03-25T02:30:53.230Z,7.77
2023-03-25T02:33:24.326Z,7.74
2023-03-25T02:36:20.568Z,7.70
2023-03-25T02:39:04.198Z,7.66
2023-03-25T02:41:46.993Z,7.63
2023-03-25T02:44:27.892Z,7.60
2023-03-25T02:47:00.782Z,7.56
2023-03-25T02:49:33.934Z,7.54
2023-03-25T02:52:32.519Z,7.51
2023-03-25T02:55:05.102Z,7.49
2023-03-25T02:57:36.081Z,7.48
2023-03-25T03:00:15.587Z,7.46
2023-03-25T03:03:00.184Z,7.44
2023-03-25T03:05:33.837Z,7.41
2023-03-25T03:08:24.406Z,7.40
2023-03-25T03:11:24.285Z,7.38
2023-03-25T03:14:23.890Z,7.35
2023-03-25T03:17:34.254Z,7.32
2023-03-25T03:20:08.632Z,7.28
2023-03-25T03:22:52.982Z,7.25
2023-03-25T03:25:43.026Z,7.21
2023-03-25T03:28:28.979Z,7.17
2023-03-25T03:31:06.762Z,7.14
2023-03-25T03:34:04.299Z,7.12
2023-03-25T03:36:38.912Z,7.09
2023-03-25T03:39:17.273Z,7.06
2023-03-25T03:41:51.050Z,7.03
2023-03-25T03:44:23.018Z,6.99
2023-03-25T03:47:00.256Z,6.97
2023-03-25T03:49:38.422Z,6.93
2023-03-25T03:52:14.528Z,6.91
2023-03-25T03:54:48.416Z,6.88
2023-03-25T03:57:32.324Z,6.87
2023-03-25T04:04:38.952Z,6.86
2023-03-25T04:07:16.455Z,6.86
2023-03-25T04:09:55.090Z,6.86
2023-03-25T04:12:32.761Z,6.87
2023-03-25T04:15:03.554Z,6.87
2023-03-25T04:17:33.156Z,6.87
2023-03-25T04:20:08.715Z,6.87
2023-03-25T04:22:37.853Z,6.88
2023-03-25T04:25:07.212Z,6.90
2023-03-25T04:27:37.832Z,6.91
2023-03-25T04:34:40.110Z,6.97
2023-03-25T04:37:08.025Z,7.00
2023-03-25T04:39:36.076Z,7.03
2023-03-25T04:42:04.226Z,7.06
2023-03-25T04:44:39.343Z,7.12
2023-03-25T04:47:14.971Z,7.17
2023-03-25T04:49:45.223Z,7.23
2023-03-25T04:52:13.286Z,7.28
2023-03-25T04:54:41.345Z,7.33
2023-03-25T04:57:09.463Z,7.38
2023-03-25T04:59:37.808Z,7.45
2023-03-25T05:02:06.936Z,7.54
2023-03-25T05:04:35.319Z,7.63
2023-03-25T05:07:03.730Z,7.72
2023-03-25T05:09:31.709Z,7.80
2023-03-25T05:11:59.640Z,7.89
2023-03-25T05:14:27.610Z,7.97
2023-03-25T05:16:57.525Z,8.04
2023-03-25T05:19:25.679Z,8.08
2023-03-25T05:21:56.172Z,8.12
2023-03-25T05:24:24.216Z,8.16
2023-03-25T05:26:58.110Z,8.19
2023-03-25T05:29:34.120Z,8.23
2023-03-25T05:32:02.254Z,8.27
2023-03-25T05:34:31.159Z,8.30
2023-03-25T05:36:59.368Z,8.34
2023-03-25T05:39:28.552Z,8.38
2023-03-25T05:42:02.680Z,8.42
2023-03-25T05:44:30.799Z,8.46
2023-03-25T05:47:01.701Z,8.51
2023-03-25T05:49:32.802Z,8.55
2023-03-25T05:52:01.872Z,8.60
2023-03-25T05:54:31.676Z,8.65
2023-03-25T05:56:59.685Z,8.71
2023-03-25T05:59:27.842Z,8.76
2023-03-25T06:01:56.422Z,8.81
2023-03-25T06:04:24.813Z,8.86
2023-03-25T06:06:53.064Z,8.92
2023-03-25T06:09:21.095Z,8.97
2023-03-25T06:11:53.519Z,9.02
2023-03-25T06:14:25.585Z,9.08
2023-03-25T06:16:53.450Z,9.15
2023-03-25T06:19:26.642Z,9.23
2023-03-25T06:21:56.285Z,9.33
2023-03-25T06:24:30.760Z,9.42
2023-03-25T06:26:59.152Z,9.50
2023-03-25T06:29:27.761Z,9.60
2023-03-25T06:31:55.909Z,9.73
2023-03-25T06:34:24.019Z,9.87
2023-03-25T06:36:54.508Z,10.01
2023-03-25T06:39:22.721Z,10.15
2023-03-25T06:41:52.207Z,10.26
2023-03-25T06:44:27.784Z,10.32
2023-03-25T06:47:26.603Z,10.40
2023-03-25T06:49:54.978Z,10.48
2023-03-25T06:52:22.959Z,10.61
2023-03-25T06:54:51.006Z,10.77
2023-03-25T06:57:20.243Z,10.96
2023-03-25T06:59:49.746Z,11.13
2023-03-25T07:02:17.603Z,11.32
2023-03-25T07:04:45.817Z,11.52
2023-03-25T07:07:13.761Z,11.67
2023-03-25T07:09:41.957Z,11.80
2023-03-25T07:12:09.960Z,11.91
2023-03-25T07:14:37.925Z,12.00
2023-03-25T07:17:06.481Z,12.14
2023-03-25T07:19:34.494Z,12.38
2023-03-25T07:22:02.534Z,12.72
2023-03-25T07:24:30.500Z,13.03
2023-03-25T07:26:58.772Z,13.28
2023-03-25T07:29:27.635Z,13.50
2023-03-25T07:31:55.619Z,13.72
2023-03-25T07:34:24.029Z,13.84
2023-03-25T07:36:51.959Z,13.92
2023-03-25T07:39:22.003Z,13.90
2023-03-25T07:41:50.136Z,13.65
2023-03-25T07:44:41.128Z,13.41
2023-03-25T07:47:09.175Z,13.39
2023-03-25T07:49:40.959Z,13.64
2023-03-25T07:52:08.915Z,13.89
2023-03-25T07:54:38.372Z,13.90
2023-03-25T07:57:06.441Z,13.91
2023-03-25T07:59:34.888Z,13.93
2023-03-25T08:02:02.870Z,13.95
2023-03-25T08:04:31.379Z,14.09
2023-03-25T08:06:59.345Z,14.36
2023-03-25T08:09:27.359Z,14.72
2023-03-25T08:11:56.172Z,15.23
2023-03-25T08:14:24.336Z,15.65
2023-03-25T08:16:52.342Z,15.86
2023-03-25T08:19:21.149Z,16.12
2023-03-25T08:21:49.119Z,16.46
2023-03-25T08:24:17.181Z,16.87
2023-03-25T08:26:45.165Z,17.01
2023-03-25T08:29:14.564Z,16.92
2023-03-25T08:31:47.014Z,16.88
2023-03-25T08:34:15.386Z,17.04
2023-03-25T08:36:43.505Z,17.32
2023-03-25T08:39:12.902Z,17.59
2023-03-25T08:41:42.011Z,17.83
2023-03-25T08:44:10.648Z,17.90
2023-03-25T08:46:38.782Z,17.78
2023-03-25T08:49:06.782Z,17.65
2023-03-25T08:51:34.881Z,17.67
2023-03-25T08:54:04.367Z,17.75
2023-03-25T08:56:32.374Z,17.93
2023-03-25T08:59:00.449Z,18.08
2023-03-25T09:01:29.823Z,18.15
2023-03-25T09:03:57.925Z,18.24
2023-03-25T09:06:26.160Z,18.27
2023-03-25T09:08:56.261Z,18.16
2023-03-25T09:11:34.041Z,18.01
2023-03-25T09:14:05.231Z,17.95
2023-03-25T09:16:34.367Z,17.92
2023-03-25T09:19:02.778Z,17.86
2023-03-25T09:21:30.725Z,17.81
2023-03-25T09:23:58.724Z,17.81
2023-03-25T09:26:26.814Z,17.94
2023-03-25T09:28:56.460Z,18.05
2023-03-25T09:31:26.137Z,18.06
2023-03-25T09:33:54.419Z,17.87
2023-03-25T09:36:22.370Z,17.61
2023-03-25T09:38:51.020Z,17.55
2023-03-25T09:41:40.940Z,17.53
2023-03-25T09:44:26.215Z,17.62
2023-03-25T09:46:55.651Z,17.66
2023-03-25T09:49:27.993Z,17.65
2023-03-25T09:51:57.494Z,17.59
2023-03-25T09:54:38.808Z,17.48
2023-03-25T09:57:12.334Z,17.39
2023-03-25T09:59:44.667Z,17.35
2023-03-25T10:02:21.727Z,17.37
2023-03-25T10:05:20.288Z,17.35
2023-03-25T10:08:10.589Z,17.28
2023-03-25T10:11:01.490Z,17.30
2023-03-25T10:14:12.704Z,17.30
2023-03-25T10:17:15.807Z,17.47
2023-03-25T10:19:51.367Z,17.59
2023-03-25T10:22:27.210Z,17.68
2023-03-25T10:25:05.353Z,17.79
2023-03-25T10:27:41.536Z,17.75
2023-03-25T10:30:09.553Z,17.51
2023-03-25T10:32:53.539Z,17.39
2023-03-25T10:35:27.319Z,17.25
2023-03-25T10:38:02.080Z,17.33
2023-03-25T10:40:50.467Z,17.53
2023-03-25T10:43:21.685Z,17.66
2023-03-25T10:45:54.197Z,17.79
2023-03-25T10:48:31.357Z,17.77
2023-03-25T10:51:04.704Z,17.54
2023-03-25T10:53:32.795Z,17.32
2023-03-25T10:56:08.330Z,17.07
2023-03-25T10:58:39.557Z,16.83
2023-03-25T11:04:41.593Z,16.58
2023-03-25T11:07:20.692Z,16.61
2023-03-25T11:09:48.754Z,16.81
2023-03-25T11:12:30.158Z,17.11
2023-03-25T11:15:02.433Z,17.55
2023-03-25T11:17:31.582Z,17.81
2023-03-25T11:20:02.119Z,17.79
2023-03-25T11:22:31.732Z,17.66
2023-03-25T11:25:30.690Z,17.57
2023-03-25T11:28:03.111Z,17.37
2023-03-25T11:30:31.355Z,17.12
2023-03-25T11:33:21.425Z,16.82
2023-03-25T11:35:49.790Z,16.59
2023-03-25T11:38:22.295Z,16.41
2023-03-25T11:40:56.150Z,16.29
2023-03-25T11:43:31.440Z,16.11
2023-03-25T11:46:11.603Z,15.66
2023-03-25T11:48:41.696Z,15.25
2023-03-25T11:51:16.575Z,15.01
2023-03-25T11:53:55.702Z,14.75
2023-03-25T11:56:38.293Z,14.59
2023-03-25T11:59:28.448Z,14.64
2023-03-25T12:02:17.708Z,14.81
2023-03-25T12:05:16.755Z,15.01
2023-03-25T12:07:47.552Z,15.20
2023-03-25T12:10:27.130Z,15.31
2023-03-25T12:13:12.272Z,15.38
2023-03-25T12:15:52.372Z,15.38
2023-03-25T12:18:39.683Z,15.38
2023-03-25T12:21:33.651Z,15.36
2023-03-25T12:24:25.764Z,15.33
2023-03-25T12:26:59.823Z,15.29
2023-03-25T12:29:50.272Z,15.28
2023-03-25T12:32:29.709Z,15.28
2023-03-25T12:35:04.513Z,15.31
2023-03-25T12:37:45.671Z,15.33
2023-03-25T12:40:25.730Z,15.38
2023-03-25T12:43:05.685Z,15.48
2023-03-25T12:45:37.578Z,15.53
2023-03-25T12:48:09.030Z,15.56
2023-03-25T12:51:28.281Z,15.55
2023-03-25T12:54:08.818Z,15.47
2023-03-25T12:56:42.979Z,15.26
2023-03-25T12:59:29.511Z,14.89
2023-03-25T13:02:21.604Z,14.46
2023-03-25T13:05:04.681Z,14.12
2023-03-25T13:07:38.722Z,13.87
2023-03-25T13:10:25.215Z,13.68
2023-03-25T13:12:56.362Z,13.50
2023-03-25T13:15:27.754Z,13.37
2023-03-25T13:17:58.244Z,13.24
2023-03-25T13:20:30.144Z,13.12
2023-03-25T13:23:05.063Z,13.03
2023-03-25T13:25:53.129Z,12.96
2023-03-25T13:28:30.516Z,12.88
2023-03-25T13:31:01.366Z,12.82
2023-03-25T13:33:35.348Z,12.77
2023-03-25T13:36:22.359Z,12.75
2023-03-25T13:38:54.109Z,12.81
2023-03-25T13:41:39.108Z,12.91
2023-03-25T13:44:13.036Z,13.05
2023-03-25T13:46:48.969Z,13.17
2023-03-25T13:49:33.050Z,13.25
2023-03-25T13:52:01.846Z,13.33
2023-03-25T13:55:08.925Z,13.40
2023-03-25T13:57:36.867Z,13.44
2023-03-25T14:00:32.205Z,13.46
2023-03-25T14:03:26.501Z,13.55
2023-03-25T14:06:31.017Z,13.73
2023-03-25T14:09:11.295Z,13.96
2023-03-25T14:11:50.424Z,14.13
2023-03-25T14:14:22.358Z,14.22
2023-03-25T14:16:59.929Z,14.27
2023-03-25T14:19:31.922Z,14.31
2023-03-25T14:22:18.086Z,14.28
2023-03-25T14:24:46.943Z,14.25
2023-03-25T14:27:32.725Z,14.22
2023-03-25T14:30:07.065Z,14.13
2023-03-25T14:32:40.138Z,14.05
2023-03-25T14:35:34.148Z,14.00
2023-03-25T14:38:08.781Z,13.95
2023-03-25T14:40:50.680Z,13.93
2023-03-25T14:43:34.354Z,13.83
2023-03-25T14:46:12.974Z,13.30
2023-03-25T14:48:46.923Z,12.62
2023-03-25T14:51:18.608Z,12.10
2023-03-25T14:54:01.061Z,11.72
2023-03-25T14:56:38.318Z,11.34
2023-03-25T14:59:15.763Z,11.05
2023-03-25T15:01:45.686Z,10.79
2023-03-25T15:04:18.664Z,10.58
2023-03-25T15:06:49.219Z,10.40
2023-03-25T15:09:19.025Z,10.27
2023-03-25T15:11:59.893Z,10.17
2023-03-25T15:14:32.899Z,10.04
2023-03-25T15:17:05.609Z,9.91
2023-03-25T15:20:10.930Z,9.78
2023-03-25T15:22:40.996Z,9.61
2023-03-25T15:25:19.439Z,9.51
2023-03-25T15:28:07.463Z,9.39
2023-03-25T15:30:50.896Z,9.24
2023-03-25T15:33:42.898Z,9.13
2023-03-25T15:36:40.272Z,9.06
2023-03-25T15:39:22.745Z,9.04
2023-03-25T15:42:02.967Z,9.05
2023-03-25T15:44:55.631Z,9.09
2023-03-25T15:47:32.157Z,9.15
2023-03-25T15:50:15.186Z,9.21
2023-03-25T15:53:14.042Z,9.28
2023-03-25T15:55:50.481Z,9.35
2023-03-25T15:58:25.695Z,9.38
2023-03-25T16:01:00.331Z,9.40
2023-03-25T16:03:32.043Z,9.41
2023-03-25T16:06:05.166Z,9.42
2023-03-25T16:08:40.814Z,9.43
2023-03-25T16:11:27.487Z,9.41
2023-03-25T16:14:09.373Z,9.37
2023-03-25T16:16:53.328Z,9.33
2023-03-25T16:19:25.913Z,9.27
2023-03-25T16:21:54.951Z,9.20
2023-03-25T16:24:26.737Z,9.14
2023-03-25T16:26:54.733Z,9.08
2023-03-25T16:29:25.906Z,9.02
2023-03-25T16:32:00.560Z,8.95
2023-03-25T16:34:35.444Z,8.87
2023-03-25T16:37:06.299Z,8.80
2023-03-25T16:39:36.952Z,8.73
2023-03-25T16:42:17.092Z,8.64
2023-03-25T16:44:46.372Z,8.56
2023-03-25T16:47:17.162Z,8.50
2023-03-25T16:49:48.246Z,8.43
2023-03-25T16:52:22.521Z,8.37
2023-03-25T16:54:50.486Z,8.31
2023-03-25T16:57:27.474Z,8.26
2023-03-25T16:59:56.240Z,8.21
2023-03-25T17:02:24.263Z,8.17
2023-03-25T17:04:55.895Z,8.14
2023-03-25T17:07:28.799Z,8.10
2023-03-25T17:09:59.460Z,8.07
2023-03-25T17:12:29.303Z,8.03
2023-03-25T17:15:07.017Z,8.01
2023-03-25T17:17:51.367Z,8.00
2023-03-25T17:20:25.124Z,8.00
2023-03-25T17:23:14.085Z,8.02
2023-03-25T17:25:56.734Z,8.05
2023-03-25T17:28:33.805Z,8.09
2023-03-25T17:31:36.403Z,8.12
2023-03-25T17:34:13.242Z,8.16
2023-03-25T17:36:45.460Z,8.20
2023-03-25T17:39:21.147Z,8.24
2023-03-25T17:42:01.565Z,8.29
2023-03-25T17:44:32.797Z,8.32
2023-03-25T17:47:00.917Z,8.35
2023-03-25T17:49:29.169Z,8.38
2023-03-25T17:52:01.287Z,8.40
2023-03-25T17:54:29.411Z,8.42
2023-03-25T17:56:57.611Z,8.42
2023-03-25T17:59:26.871Z,8.43
2023-03-25T18:01:55.158Z,8.43
2023-03-25T18:04:23.235Z,8.43
2023-03-25T18:06:52.382Z,8.43
2023-03-25T18:09:24.967Z,8.43
2023-03-25T18:11:56.363Z,8.42
2023-03-25T18:14:26.007Z,8.41
2023-03-25T18:16:54.601Z,8.39
2023-03-25T18:19:32.339Z,8.38
2023-03-25T18:22:09.768Z,8.38
2023-03-25T18:24:42.063Z,8.37
2023-03-25T18:27:14.314Z,8.36
2023-03-25T18:29:42.381Z,8.35
2023-03-25T18:32:10.476Z,8.36
2023-03-25T18:34:38.526Z,8.36
2023-03-25T18:37:07.708Z,8.36
2023-03-25T18:39:35.790Z,8.36
2023-03-25T18:42:03.822Z,8.35
2023-03-25T18:44:31.788Z,8.34
2023-03-25T18:47:00.040Z,8.31
2023-03-25T18:49:28.193Z,8.29
2023-03-25T18:51:57.897Z,8.29
2023-03-25T18:54:26.004Z,8.30
2023-03-25T18:56:54.096Z,8.31
2023-03-25T18:59:22.240Z,8.31
2023-03-25T19:04:39.874Z,8.26
2023-03-25T19:07:13.358Z,8.23
2023-03-25T19:09:41.758Z,8.20
2023-03-25T19:12:11.070Z,8.18
2023-03-25T19:14:39.106Z,8.18
2023-03-25T19:17:07.412Z,8.17
2023-03-25T19:19:36.394Z,8.17
2023-03-25T19:22:04.570Z,8.17
2023-03-25T19:24:32.517Z,8.16
2023-03-25T19:27:01.013Z,8.16
2023-03-25T19:29:29.301Z,8.14
2023-03-25T19:31:57.839Z,8.13
2023-03-25T19:34:26.039Z,8.11
2023-03-25T19:37:02.492Z,8.09
2023-03-25T19:39:31.637Z,8.06
2023-03-25T19:41:59.669Z,8.02
2023-03-25T19:44:27.826Z,7.99
2023-03-25T19:46:56.038Z,7.95
2023-03-25T19:49:36.723Z,7.90
2023-03-25T19:52:08.402Z,7.87
2023-03-25T19:54:36.375Z,7.84
2023-03-25T19:57:04.374Z,7.80
2023-03-25T19:59:33.538Z,7.76
2023-03-25T20:02:02.183Z,7.71
2023-03-25T20:04:30.250Z,7.65
2023-03-25T20:06:58.213Z,7.59
2023-03-25T20:09:27.882Z,7.52
2023-03-25T20:11:57.271Z,7.46
2023-03-25T20:14:25.221Z,7.38
2023-03-25T20:16:53.410Z,7.29
2023-03-25T20:19:22.216Z,7.20
2023-03-25T20:21:50.614Z,7.12
2023-03-25T20:24:19.042Z,7.04
2023-03-25T20:26:47.097Z,6.98
2023-03-25T20:29:17.655Z,6.92
2023-03-25T20:31:46.045Z,6.86
2023-03-25T20:34:14.296Z,6.80
2023-03-25T20:36:42.301Z,6.75
2023-03-25T20:39:11.336Z,6.71
2023-03-25T20:41:39.575Z,6.66
2023-03-25T20:44:07.724Z,6.62
2023-03-25T20:46:35.816Z,6.60
2023-03-25T20:49:06.866Z,6.55
2023-03-25T20:51:36.462Z,6.52
2023-03-25T20:54:04.599Z,6.49
2023-03-25T20:56:33.192Z,6.46
2023-03-25T20:59:02.534Z,6.42
2023-03-25T21:01:31.852Z,6.37
2023-03-25T21:04:25.195Z,6.34
2023-03-25T21:06:53.323Z,6.30
2023-03-25T21:09:22.252Z,6.29
2023-03-25T21:11:50.916Z,6.28
2023-03-25T21:14:19.272Z,6.27
2023-03-25T21:16:47.932Z,6.28
2023-03-25T21:19:16.610Z,6.29
2023-03-25T21:21:44.562Z,6.27
2023-03-25T21:24:14.122Z,6.25
2023-03-25T21:26:41.975Z,6.24
2023-03-25T21:29:10.198Z,6.22
2023-03-25T21:31:38.250Z,6.19
2023-03-25T21:34:06.558Z,6.15
2023-03-25T21:36:34.482Z,6.11
2023-03-25T21:39:04.519Z,6.07
2023-03-25T21:41:32.553Z,6.03
2023-03-25T21:44:00.791Z,6.00
2023-03-25T21:46:29.091Z,5.98
2023-03-25T21:49:00.946Z,5.96
2023-03-25T21:51:36.006Z,5.95
2023-03-25T21:54:04.205Z,5.95
2023-03-25T21:56:34.727Z,5.97
2023-03-25T21:59:04.639Z,6.00
2023-03-25T22:01:32.783Z,6.02
2023-03-25T22:04:03.002Z,6.04
2023-03-25T22:06:33.416Z,6.07
2023-03-25T22:09:05.574Z,6.11
2023-03-25T22:11:37.419Z,6.15
2023-03-25T22:14:05.639Z,6.21
2023-03-25T22:16:34.227Z,6.28
2023-03-25T22:19:02.323Z,6.35
2023-03-25T22:21:37.131Z,6.43
2023-03-25T22:24:07.224Z,6.50
2023-03-25T22:26:38.548Z,6.57
2023-03-25T22:29:08.327Z,6.64
2023-03-25T22:31:40.871Z,6.70
2023-03-25T22:34:13.111Z,6.76
2023-03-25T22:36:46.349Z,6.80
2023-03-25T22:39:14.531Z,6.85
2023-03-25T22:41:42.407Z,6.88
2023-03-25T22:44:10.771Z,6.91
2023-03-25T22:46:40.366Z,6.94
2023-03-25T22:49:08.350Z,6.98
2023-03-25T22:51:36.370Z,7.02
2023-03-25T22:54:09.942Z,7.06
2023-03-25T22:56:43.497Z,7.10
2023-03-25T22:59:13.742Z,7.13
2023-03-25T23:01:42.879Z,7.18
2023-03-25T23:04:11.232Z,7.22
2023-03-25T23:06:39.511Z,7.25
2023-03-25T23:09:09.207Z,7.26
2023-03-25T23:11:38.032Z,7.27
2023-03-25T23:14:13.349Z,7.28
2023-03-25T23:16:42.080Z,7.29
2023-03-25T23:19:10.451Z,7.29
2023-03-25T23:21:39.039Z,7.29
2023-03-25T23:24:07.900Z,7.28
2023-03-25T23:26:39.387Z,7.27
2023-03-25T23:29:10.612Z,7.25
2023-03-25T23:31:41.509Z,7.22
2023-03-25T23:34:15.526Z,7.21
2023-03-25T23:36:43.976Z,7.17
2023-03-25T23:39:15.545Z,7.15
2023-03-25T23:41:45.553Z,7.11
2023-03-25T23:44:13.541Z,7.07
2023-03-25T23:46:42.004Z,7.03
2023-03-25T23:49:10.857Z,6.99
2023-03-25T23:51:41.434Z,6.96
2023-03-25T23:54:12.351Z,6.93
2023-03-25T23:56:42.358Z,6.91
2023-03-25T23:59:11.714Z,6.89
